sensor_id;sensor_type;location;lat;lon;timestamp;temperature;humidity
56436;DHT22;42335;44.872;20.658;2022-12-29T00:00:00;102.60;2227.20
56436;DHT22;42335;44.872;20.658;2022-12-29T00:02:26;102.60;2227.20
56436;DHT22;42335;44.872;20.658;2022-12-29T00:04:52;102.50;2227.20
56436;DHT22;42335;44.872;20.658;2022-12-29T00:07:18;102.70;2227.20
56436;DHT22;42335;44.872;20.658;2022-12-29T00:09:44;102.60;2227.20
56436;DHT22;42335;44.872;20.658;2022-12-29T00:12:10;102.60;2227.20
56436;DHT22;42335;44.872;20.658;2022-12-29T00:14:35;102.60;2227.20
56436;DHT22;42335;44.872;20.658;2022-12-29T00:17:19;102.60;2227.20
56436;DHT22;42335;44.872;20.658;2022-12-29T00:19:45;102.60;2227.20
56436;DHT22;42335;44.872;20.658;2022-12-29T00:22:29;102.60;2227.20
56436;DHT22;42335;44.872;20.658;2022-12-29T00:25:14;102.60;2227.20
56436;DHT22;42335;44.872;20.658;2022-12-29T00:27:58;102.60;2227.20
56436;DHT22;42335;44.872;20.658;2022-12-29T00:30:42;102.70;2227.20
56436;DHT22;42335;44.872;20.658;2022-12-29T00:33:31;102.60;2227.20
56436;DHT22;42335;44.872;20.658;2022-12-29T00:36:20;102.70;2227.20
56436;DHT22;42335;44.872;20.658;2022-12-29T00:38:50;102.60;2227.20
56436;DHT22;42335;44.872;20.658;2022-12-29T00:41:37;102.60;2227.20
56436;DHT22;42335;44.872;20.658;2022-12-29T00:44:21;102.60;2227.20
56436;DHT22;42335;44.872;20.658;2022-12-29T00:46:47;102.60;2227.20
56436;DHT22;42335;44.872;20.658;2022-12-29T00:49:13;102.60;2227.20
56436;DHT22;42335;44.872;20.658;2022-12-29T00:52:06;102.60;2227.20
56436;DHT22;42335;44.872;20.658;2022-12-29T00:54:34;102.60;2227.20
56436;DHT22;42335;44.872;20.658;2022-12-29T00:57:01;102.60;2227.20
56436;DHT22;42335;44.872;20.658;2022-12-29T00:59:27;102.60;2227.20
56436;DHT22;42335;44.872;20.658;2022-12-29T01:01:53;102.60;2227.20
56436;DHT22;42335;44.872;20.658;2022-12-29T01:04:21;102.50;2227.20
56436;DHT22;42335;44.872;20.658;2022-12-29T01:06:47;102.50;2227.20
56436;DHT22;42335;44.872;20.658;2022-12-29T01:09:13;102.50;2227.20
56436;DHT22;42335;44.872;20.658;2022-12-29T01:11:57;102.50;2227.20
56436;DHT22;42335;44.872;20.658;2022-12-29T01:14:23;102.50;2227.20
56436;DHT22;42335;44.872;20.658;2022-12-29T01:16:50;102.50;2227.20
56436;DHT22;42335;44.872;20.658;2022-12-29T01:19:17;102.60;2227.20
56436;DHT22;42335;44.872;20.658;2022-12-29T01:21:43;102.60;2227.20
56436;DHT22;42335;44.872;20.658;2022-12-29T01:24:09;102.60;2227.20
56436;DHT22;42335;44.872;20.658;2022-12-29T01:26:35;102.60;2227.20
56436;DHT22;42335;44.872;20.658;2022-12-29T01:29:00;102.50;2227.20
56436;DHT22;42335;44.872;20.658;2022-12-29T01:31:26;102.50;2227.20
56436;DHT22;42335;44.872;20.658;2022-12-29T01:33:52;102.50;2227.20
56436;DHT22;42335;44.872;20.658;2022-12-29T01:36:18;102.50;2227.20
56436;DHT22;42335;44.872;20.658;2022-12-29T01:38:45;102.50;2227.20
56436;DHT22;42335;44.872;20.658;2022-12-29T01:41:13;102.50;2227.20
56436;DHT22;42335;44.872;20.658;2022-12-29T01:46:28;102.50;2227.20
56436;DHT22;42335;44.872;20.658;2022-12-29T01:49:04;102.50;2227.20
56436;DHT22;42335;44.872;20.658;2022-12-29T01:51:37;102.50;2227.20
56436;DHT22;42335;44.872;20.658;2022-12-29T01:54:07;102.40;2227.20
56436;DHT22;42335;44.872;20.658;2022-12-29T01:56:36;102.40;2227.20
56436;DHT22;42335;44.872;20.658;2022-12-29T01:59:06;102.40;2227.20
56436;DHT22;42335;44.872;20.658;2022-12-29T02:01:34;102.40;2227.20
56436;DHT22;42335;44.872;20.658;2022-12-29T02:04:01;77.70;2227.20
56436;DHT22;42335;44.872;20.658;2022-12-29T02:06:35;77.70;2227.20
56436;DHT22;42335;44.872;20.658;2022-12-29T02:09:02;77.70;2227.20
56436;DHT22;42335;44.872;20.658;2022-12-29T02:11:29;77.70;2227.20
56436;DHT22;42335;44.872;20.658;2022-12-29T02:13:56;77.70;2227.20
56436;DHT22;42335;44.872;20.658;2022-12-29T02:32:32;77.60;2227.20
56436;DHT22;42335;44.872;20.658;2022-12-29T02:40:42;77.60;2227.20
56436;DHT22;42335;44.872;20.658;2022-12-29T02:45:57;77.50;2227.20
56436;DHT22;42335;44.872;20.658;2022-12-29T02:51:03;77.60;2227.20
56436;DHT22;42335;44.872;20.658;2022-12-29T02:53:32;77.60;2227.20
56436;DHT22;42335;44.872;20.658;2022-12-29T02:56:17;77.50;2227.20
56436;DHT22;42335;44.872;20.658;2022-12-29T02:58:43;77.50;2227.20
56436;DHT22;42335;44.872;20.658;2022-12-29T03:12:30;77.40;2227.20
56436;DHT22;42335;44.872;20.658;2022-12-29T03:15:24;77.40;2227.20
56436;DHT22;42335;44.872;20.658;2022-12-29T03:18:14;77.40;2227.20
56436;DHT22;42335;44.872;20.658;2022-12-29T03:20:58;77.20;2227.20
56436;DHT22;42335;44.872;20.658;2022-12-29T03:23:26;77.20;2227.20
56436;DHT22;42335;44.872;20.658;2022-12-29T03:25:55;77.20;2227.20
56436;DHT22;42335;44.872;20.658;2022-12-29T03:28:29;77.20;2227.20
56436;DHT22;42335;44.872;20.658;2022-12-29T03:30:58;77.30;2227.20
56436;DHT22;42335;44.872;20.658;2022-12-29T03:33:27;77.30;2227.20
56436;DHT22;42335;44.872;20.658;2022-12-29T03:36:01;77.30;2227.20
56436;DHT22;42335;44.872;20.658;2022-12-29T03:38:52;77.20;2227.20
56436;DHT22;42335;44.872;20.658;2022-12-29T03:41:25;77.20;2227.20
56436;DHT22;42335;44.872;20.658;2022-12-29T03:43:51;77.10;2227.20
56436;DHT22;42335;44.872;20.658;2022-12-29T03:46:17;77.20;2227.20
56436;DHT22;42335;44.872;20.658;2022-12-29T03:48:42;77.20;2227.20
56436;DHT22;42335;44.872;20.658;2022-12-29T03:51:08;77.10;2227.20
56436;DHT22;42335;44.872;20.658;2022-12-29T03:53:34;77.20;2227.20
56436;DHT22;42335;44.872;20.658;2022-12-29T03:56:00;77.20;2227.20
56436;DHT22;42335;44.872;20.658;2022-12-29T03:58:25;77.20;2227.20
56436;DHT22;42335;44.872;20.658;2022-12-29T04:00:51;77.20;2227.20
56436;DHT22;42335;44.872;20.658;2022-12-29T04:03:16;77.30;2227.20
56436;DHT22;42335;44.872;20.658;2022-12-29T04:05:42;77.30;2227.20
56436;DHT22;42335;44.872;20.658;2022-12-29T04:08:08;77.30;2227.20
56436;DHT22;42335;44.872;20.658;2022-12-29T04:10:34;77.30;2227.20
56436;DHT22;42335;44.872;20.658;2022-12-29T04:12:59;77.40;2227.20
56436;DHT22;42335;44.872;20.658;2022-12-29T04:15:25;77.40;2227.20
56436;DHT22;42335;44.872;20.658;2022-12-29T04:17:52;77.50;2227.20
56436;DHT22;42335;44.872;20.658;2022-12-29T04:20:17;77.50;2227.20
56436;DHT22;42335;44.872;20.658;2022-12-29T04:23:04;77.60;2227.20
56436;DHT22;42335;44.872;20.658;2022-12-29T04:25:31;77.60;2227.20
56436;DHT22;42335;44.872;20.658;2022-12-29T04:27:57;77.60;2227.20
56436;DHT22;42335;44.872;20.658;2022-12-29T04:30:23;77.50;2227.20
56436;DHT22;42335;44.872;20.658;2022-12-29T04:32:49;77.60;2227.20
56436;DHT22;42335;44.872;20.658;2022-12-29T04:35:14;77.60;2227.20
56436;DHT22;42335;44.872;20.658;2022-12-29T04:37:40;77.70;2227.20
56436;DHT22;42335;44.872;20.658;2022-12-29T04:40:06;77.50;2227.20
56436;DHT22;42335;44.872;20.658;2022-12-29T04:42:32;77.60;2227.20
56436;DHT22;42335;44.872;20.658;2022-12-29T04:44:57;77.60;2227.20
56436;DHT22;42335;44.872;20.658;2022-12-29T04:47:23;77.60;2227.20
56436;DHT22;42335;44.872;20.658;2022-12-29T04:49:49;77.60;2227.20
56436;DHT22;42335;44.872;20.658;2022-12-29T04:52:14;77.70;2227.20
56436;DHT22;42335;44.872;20.658;2022-12-29T04:54:40;77.60;2227.20
56436;DHT22;42335;44.872;20.658;2022-12-29T04:57:06;77.70;2227.20
56436;DHT22;42335;44.872;20.658;2022-12-29T04:59:31;77.70;2227.20
56436;DHT22;42335;44.872;20.658;2022-12-29T05:01:57;77.70;2227.20
56436;DHT22;42335;44.872;20.658;2022-12-29T05:04:22;77.70;2227.20
56436;DHT22;42335;44.872;20.658;2022-12-29T05:06:48;77.70;2227.20
56436;DHT22;42335;44.872;20.658;2022-12-29T05:09:14;77.70;2227.20
56436;DHT22;42335;44.872;20.658;2022-12-29T05:11:39;77.70;2227.20
56436;DHT22;42335;44.872;20.658;2022-12-29T05:14:05;77.70;2227.20
56436;DHT22;42335;44.872;20.658;2022-12-29T05:16:31;77.70;2227.20
56436;DHT22;42335;44.872;20.658;2022-12-29T05:18:56;102.40;2227.20
56436;DHT22;42335;44.872;20.658;2022-12-29T05:21:22;102.40;2227.20
56436;DHT22;42335;44.872;20.658;2022-12-29T05:23:48;102.40;2227.20
56436;DHT22;42335;44.872;20.658;2022-12-29T05:26:13;102.40;2227.20
56436;DHT22;42335;44.872;20.658;2022-12-29T05:28:39;77.70;2227.20
56436;DHT22;42335;44.872;20.658;2022-12-29T05:31:05;77.70;2227.20
56436;DHT22;42335;44.872;20.658;2022-12-29T05:33:30;77.70;2227.20
56436;DHT22;42335;44.872;20.658;2022-12-29T05:35:56;77.60;2227.20
56436;DHT22;42335;44.872;20.658;2022-12-29T05:38:22;77.60;2227.20
56436;DHT22;42335;44.872;20.658;2022-12-29T05:40:47;77.60;2227.20
56436;DHT22;42335;44.872;20.658;2022-12-29T05:43:13;77.60;2227.20
56436;DHT22;42335;44.872;20.658;2022-12-29T05:45:39;77.60;2227.20
56436;DHT22;42335;44.872;20.658;2022-12-29T05:48:04;77.50;2227.20
56436;DHT22;42335;44.872;20.658;2022-12-29T05:50:30;77.50;2227.20
56436;DHT22;42335;44.872;20.658;2022-12-29T05:52:56;77.40;2227.20
56436;DHT22;42335;44.872;20.658;2022-12-29T05:55:21;77.40;2227.20
56436;DHT22;42335;44.872;20.658;2022-12-29T05:57:47;77.40;2227.20
56436;DHT22;42335;44.872;20.658;2022-12-29T06:00:13;77.40;2227.20
56436;DHT22;42335;44.872;20.658;2022-12-29T06:02:39;77.40;2227.20
56436;DHT22;42335;44.872;20.658;2022-12-29T06:05:05;77.40;2227.20
56436;DHT22;42335;44.872;20.658;2022-12-29T06:07:31;77.40;2227.20
56436;DHT22;42335;44.872;20.658;2022-12-29T06:09:56;77.40;2227.20
56436;DHT22;42335;44.872;20.658;2022-12-29T06:12:22;77.40;2227.20
56436;DHT22;42335;44.872;20.658;2022-12-29T06:14:48;77.40;2227.20
56436;DHT22;42335;44.872;20.658;2022-12-29T06:17:13;77.50;2227.20
56436;DHT22;42335;44.872;20.658;2022-12-29T06:19:39;77.50;2227.20
56436;DHT22;42335;44.872;20.658;2022-12-29T06:22:05;77.50;2227.20
56436;DHT22;42335;44.872;20.658;2022-12-29T06:24:32;77.50;2227.20
56436;DHT22;42335;44.872;20.658;2022-12-29T06:26:58;77.60;2227.20
56436;DHT22;42335;44.872;20.658;2022-12-29T06:29:24;77.60;2227.20
56436;DHT22;42335;44.872;20.658;2022-12-29T06:31:49;77.50;2227.20
56436;DHT22;42335;44.872;20.658;2022-12-29T06:34:21;77.50;2227.20
56436;DHT22;42335;44.872;20.658;2022-12-29T06:36:47;77.60;2227.20
56436;DHT22;42335;44.872;20.658;2022-12-29T06:39:12;77.60;2227.20
56436;DHT22;42335;44.872;20.658;2022-12-29T06:41:38;77.60;2227.20
56436;DHT22;42335;44.872;20.658;2022-12-29T06:44:05;77.50;2227.20
56436;DHT22;42335;44.872;20.658;2022-12-29T06:46:31;77.60;2227.20
56436;DHT22;42335;44.872;20.658;2022-12-29T06:48:57;77.60;2227.20
56436;DHT22;42335;44.872;20.658;2022-12-29T06:51:22;77.70;2227.20
56436;DHT22;42335;44.872;20.658;2022-12-29T06:53:48;77.70;2227.20
56436;DHT22;42335;44.872;20.658;2022-12-29T06:56:15;77.70;2227.20
56436;DHT22;42335;44.872;20.658;2022-12-29T06:58:42;102.40;2227.20
56436;DHT22;42335;44.872;20.658;2022-12-29T07:01:08;102.40;2227.20
56436;DHT22;42335;44.872;20.658;2022-12-29T07:03:33;102.40;2227.20
56436;DHT22;42335;44.872;20.658;2022-12-29T07:05:59;102.50;2227.20
56436;DHT22;42335;44.872;20.658;2022-12-29T07:08:25;102.50;2227.20
56436;DHT22;42335;44.872;20.658;2022-12-29T07:10:50;102.60;2227.20
56436;DHT22;42335;44.872;20.658;2022-12-29T07:13:16;102.70;2227.20
56436;DHT22;42335;44.872;20.658;2022-12-29T07:15:42;102.60;2227.20
56436;DHT22;42335;44.872;20.658;2022-12-29T07:18:07;102.70;2227.20
56436;DHT22;42335;44.872;20.658;2022-12-29T07:20:33;102.90;2227.20
56436;DHT22;42335;44.872;20.658;2022-12-29T07:22:59;103.00;2227.20
56436;DHT22;42335;44.872;20.658;2022-12-29T07:25:24;103.20;2227.20
56436;DHT22;42335;44.872;20.658;2022-12-29T07:27:50;128.00;2252.80
56436;DHT22;42335;44.872;20.658;2022-12-29T07:30:16;128.30;2252.80
56436;DHT22;42335;44.872;20.658;2022-12-29T07:32:41;128.60;2252.80
56436;DHT22;42335;44.872;20.658;2022-12-29T07:35:07;153.60;2252.80
56436;DHT22;42335;44.872;20.658;2022-12-29T07:37:34;153.80;2252.80
56436;DHT22;42335;44.872;20.658;2022-12-29T07:40:01;154.10;2252.80
56436;DHT22;42335;44.872;20.658;2022-12-29T07:42:26;154.50;2252.80
56436;DHT22;42335;44.872;20.658;2022-12-29T07:44:52;179.40;2252.80
56436;DHT22;42335;44.872;20.658;2022-12-29T07:47:18;179.60;2252.80
56436;DHT22;42335;44.872;20.658;2022-12-29T07:49:43;204.80;2252.80
56436;DHT22;42335;44.872;20.658;2022-12-29T07:52:09;205.00;2252.80
56436;DHT22;42335;44.872;20.658;2022-12-29T07:54:35;204.90;2252.80
56436;DHT22;42335;44.872;20.658;2022-12-29T08:01:53;205.40;2252.80
56436;DHT22;42335;44.872;20.658;2022-12-29T08:04:18;205.00;2252.80
56436;DHT22;42335;44.872;20.658;2022-12-29T08:06:44;204.80;2252.80
56436;DHT22;42335;44.872;20.658;2022-12-29T08:09:11;204.80;2252.80
56436;DHT22;42335;44.872;20.658;2022-12-29T08:14:03;204.80;2252.80
56436;DHT22;42335;44.872;20.658;2022-12-29T08:16:29;180.00;2252.80
56436;DHT22;42335;44.872;20.658;2022-12-29T08:18:54;179.90;2252.80
56436;DHT22;42335;44.872;20.658;2022-12-29T08:21:20;179.70;2252.80
56436;DHT22;42335;44.872;20.658;2022-12-29T08:23:47;179.70;2252.80
56436;DHT22;42335;44.872;20.658;2022-12-29T08:26:13;179.60;2252.80
56436;DHT22;42335;44.872;20.658;2022-12-29T08:28:39;179.70;2252.80
56436;DHT22;42335;44.872;20.658;2022-12-29T08:31:04;180.00;2252.80
56436;DHT22;42335;44.872;20.658;2022-12-29T08:33:30;205.20;2252.80
56436;DHT22;42335;44.872;20.658;2022-12-29T08:36:04;281.70;2278.40
56436;DHT22;42335;44.872;20.658;2022-12-29T08:38:30;384.30;1843.20
56436;DHT22;42335;44.872;20.658;2022-12-29T08:40:57;435.20;1664.00
56436;DHT22;42335;44.872;20.658;2022-12-29T08:43:27;461.70;1484.80
56436;DHT22;42335;44.872;20.658;2022-12-29T08:45:53;487.20;1356.80
56436;DHT22;42335;44.872;20.658;2022-12-29T08:48:19;538.30;1228.80
56436;DHT22;42335;44.872;20.658;2022-12-29T08:50:47;589.10;1177.60
56436;DHT22;42335;44.872;20.658;2022-12-29T08:53:13;615.10;1024.00
56436;DHT22;42335;44.872;20.658;2022-12-29T08:55:39;666.00;972.80
56436;DHT22;42335;44.872;20.658;2022-12-29T08:58:05;691.80;921.60
56436;DHT22;42335;44.872;20.658;2022-12-29T09:00:30;717.70;844.80
56436;DHT22;42335;44.872;20.658;2022-12-29T09:02:56;742.50;844.80
56436;DHT22;42335;44.872;20.658;2022-12-29T09:05:23;768.00;819.20
56436;DHT22;42335;44.872;20.658;2022-12-29T09:07:49;742.60;844.80
56436;DHT22;42335;44.872;20.658;2022-12-29T09:10:15;768.90;793.60
56436;DHT22;42335;44.872;20.658;2022-12-29T09:12:43;793.60;793.60
56436;DHT22;42335;44.872;20.658;2022-12-29T09:15:09;794.00;793.60
56436;DHT22;42335;44.872;20.658;2022-12-29T09:17:35;794.10;793.60
56436;DHT22;42335;44.872;20.658;2022-12-29T09:20:16;794.50;768.00
56436;DHT22;42335;44.872;20.658;2022-12-29T09:22:43;820.00;742.40
56436;DHT22;42335;44.872;20.658;2022-12-29T09:25:09;845.20;742.40
56436;DHT22;42335;44.872;20.658;2022-12-29T09:27:36;845.70;742.40
56436;DHT22;42335;44.872;20.658;2022-12-29T09:30:07;845.70;716.80
56436;DHT22;42335;44.872;20.658;2022-12-29T09:32:33;845.20;716.80
56436;DHT22;42335;44.872;20.658;2022-12-29T09:34:59;845.60;716.80
56436;DHT22;42335;44.872;20.658;2022-12-29T09:37:25;845.40;716.80
56436;DHT22;42335;44.872;20.658;2022-12-29T09:39:51;870.70;691.20
56436;DHT22;42335;44.872;20.658;2022-12-29T09:42:26;870.90;665.60
56436;DHT22;42335;44.872;20.658;2022-12-29T09:47:36;921.60;640.00
56436;DHT22;42335;44.872;20.658;2022-12-29T09:50:32;922.00;614.40
56436;DHT22;42335;44.872;20.658;2022-12-29T09:55:46;922.00;640.00
56436;DHT22;42335;44.872;20.658;2022-12-29T09:58:24;921.90;640.00
56436;DHT22;42335;44.872;20.658;2022-12-29T10:03:49;947.50;614.40
56436;DHT22;42335;44.872;20.658;2022-12-29T10:17:33;998.90;563.20
56436;DHT22;42335;44.872;20.658;2022-12-29T10:25:22;948.00;588.80
56436;DHT22;42335;44.872;20.658;2022-12-29T10:27:49;973.30;588.80
56436;DHT22;42335;44.872;20.658;2022-12-29T10:30:16;948.10;588.80
56436;DHT22;42335;44.872;20.658;2022-12-29T10:32:50;998.40;588.80
56436;DHT22;42335;44.872;20.658;2022-12-29T10:35:23;998.80;588.80
56436;DHT22;42335;44.872;20.658;2022-12-29T10:40:48;999.10;563.20
56436;DHT22;42335;44.872;20.658;2022-12-29T10:45:48;1050.00;537.60
56436;DHT22;42335;44.872;20.658;2022-12-29T10:48:23;1050.00;537.60
56436;DHT22;42335;44.872;20.658;2022-12-29T10:50:53;1075.40;512.00
56436;DHT22;42335;44.872;20.658;2022-12-29T10:53:25;1049.80;563.20
56436;DHT22;42335;44.872;20.658;2022-12-29T10:55:52;1049.90;537.60
56436;DHT22;42335;44.872;20.658;2022-12-29T10:58:19;1100.80;512.00
56436;DHT22;42335;44.872;20.658;2022-12-29T11:00:51;1050.40;537.60
56436;DHT22;42335;44.872;20.658;2022-12-29T11:03:39;1050.40;537.60
56436;DHT22;42335;44.872;20.658;2022-12-29T11:06:26;1075.80;486.40
56436;DHT22;42335;44.872;20.658;2022-12-29T11:09:16;1101.20;486.40
56436;DHT22;42335;44.872;20.658;2022-12-29T11:11:44;1126.60;486.40
56436;DHT22;42335;44.872;20.658;2022-12-29T11:16:39;1152.10;435.20
56436;DHT22;42335;44.872;20.658;2022-12-29T11:19:20;1152.60;435.20
56436;DHT22;42335;44.872;20.658;2022-12-29T11:21:46;1152.70;435.20
56436;DHT22;42335;44.872;20.658;2022-12-29T11:26:55;1152.70;435.20
56436;DHT22;42335;44.872;20.658;2022-12-29T11:29:29;1152.40;435.20
56436;DHT22;42335;44.872;20.658;2022-12-29T11:32:17;1152.70;435.20
56436;DHT22;42335;44.872;20.658;2022-12-29T11:34:46;1177.60;435.20
56436;DHT22;42335;44.872;20.658;2022-12-29T11:37:14;1177.80;409.60
56436;DHT22;42335;44.872;20.658;2022-12-29T11:40:05;1203.20;435.20
56436;DHT22;42335;44.872;20.658;2022-12-29T11:45:17;1178.50;409.60
56436;DHT22;42335;44.872;20.658;2022-12-29T11:47:46;1178.50;409.60
56436;DHT22;42335;44.872;20.658;2022-12-29T11:50:18;1203.40;435.20
56436;DHT22;42335;44.872;20.658;2022-12-29T11:52:46;1203.40;435.20
56436;DHT22;42335;44.872;20.658;2022-12-29T11:55:20;1178.30;409.60
56436;DHT22;42335;44.872;20.658;2022-12-29T11:57:47;1203.30;435.20
56436;DHT22;42335;44.872;20.658;2022-12-29T12:00:19;1178.50;409.60
56436;DHT22;42335;44.872;20.658;2022-12-29T12:02:59;1204.10;435.20
56436;DHT22;42335;44.872;20.658;2022-12-29T12:05:50;1228.80;460.80
56436;DHT22;42335;44.872;20.658;2022-12-29T12:10:55;1126.50;512.00
56436;DHT22;42335;44.872;20.658;2022-12-29T12:14:00;947.50;640.00
56436;DHT22;42335;44.872;20.658;2022-12-29T12:16:33;844.90;793.60
56436;DHT22;42335;44.872;20.658;2022-12-29T12:21:39;716.90;947.20
56436;DHT22;42335;44.872;20.658;2022-12-29T12:24:41;666.00;998.40
56436;DHT22;42335;44.872;20.658;2022-12-29T12:29:52;589.60;1152.00
56436;DHT22;42335;44.872;20.658;2022-12-29T12:43:39;486.80;1459.20
56436;DHT22;42335;44.872;20.658;2022-12-29T12:46:19;461.70;1536.00
56436;DHT22;42335;44.872;20.658;2022-12-29T12:48:56;461.20;1587.20
56436;DHT22;42335;44.872;20.658;2022-12-29T12:54:22;436.00;1638.40
56436;DHT22;42335;44.872;20.658;2022-12-29T13:07:59;435.20;1740.80
56436;DHT22;42335;44.872;20.658;2022-12-29T13:10:42;410.50;1766.40
56436;DHT22;42335;44.872;20.658;2022-12-29T13:16:06;409.90;1843.20
56436;DHT22;42335;44.872;20.658;2022-12-29T13:18:52;409.70;1894.40
56436;DHT22;42335;44.872;20.658;2022-12-29T13:24:16;409.70;1945.60
56436;DHT22;42335;44.872;20.658;2022-12-29T13:27:03;409.80;1920.00
56436;DHT22;42335;44.872;20.658;2022-12-29T13:29:40;409.60;2022.40
56436;DHT22;42335;44.872;20.658;2022-12-29T13:37:54;384.20;2329.60
56436;DHT22;42335;44.872;20.658;2022-12-29T13:40:25;384.00;2329.60
56436;DHT22;42335;44.872;20.658;2022-12-29T13:42:56;359.20;2329.60
56436;DHT22;42335;44.872;20.658;2022-12-29T13:45:25;359.10;2329.60
56436;DHT22;42335;44.872;20.658;2022-12-29T13:47:57;359.00;2329.60
56436;DHT22;42335;44.872;20.658;2022-12-29T13:50:26;358.90;2329.60
56436;DHT22;42335;44.872;20.658;2022-12-29T14:01:18;358.70;2329.60
56436;DHT22;42335;44.872;20.658;2022-12-29T14:03:51;358.60;2329.60
56436;DHT22;42335;44.872;20.658;2022-12-29T14:09:00;358.50;2329.60
56436;DHT22;42335;44.872;20.658;2022-12-29T14:11:44;333.70;2329.60
56436;DHT22;42335;44.872;20.658;2022-12-29T14:16:49;333.50;2329.60
56436;DHT22;42335;44.872;20.658;2022-12-29T14:19:25;333.50;2329.60
56436;DHT22;42335;44.872;20.658;2022-12-29T14:22:03;333.40;2329.60
56436;DHT22;42335;44.872;20.658;2022-12-29T14:34:59;333.20;2329.60
56436;DHT22;42335;44.872;20.658;2022-12-29T14:37:35;333.20;2329.60
56436;DHT22;42335;44.872;20.658;2022-12-29T14:42:48;333.10;2329.60
56436;DHT22;42335;44.872;20.658;2022-12-29T14:50:43;333.00;2329.60
56436;DHT22;42335;44.872;20.658;2022-12-29T14:53:04;333.00;2329.60
56436;DHT22;42335;44.872;20.658;2022-12-29T14:56:00;333.20;2329.60
56436;DHT22;42335;44.872;20.658;2022-12-29T14:58:32;332.90;2329.60
56436;DHT22;42335;44.872;20.658;2022-12-29T15:00:59;332.90;2329.60
56436;DHT22;42335;44.872;20.658;2022-12-29T15:03:50;332.90;2329.60
56436;DHT22;42335;44.872;20.658;2022-12-29T15:06:17;332.90;2329.60
56436;DHT22;42335;44.872;20.658;2022-12-29T15:08:56;332.90;2329.60
56436;DHT22;42335;44.872;20.658;2022-12-29T15:14:23;332.90;2329.60
56436;DHT22;42335;44.872;20.658;2022-12-29T15:16:49;332.80;2329.60
56436;DHT22;42335;44.872;20.658;2022-12-29T15:19:22;332.90;2329.60
56436;DHT22;42335;44.872;20.658;2022-12-29T15:21:48;332.80;2329.60
56436;DHT22;42335;44.872;20.658;2022-12-29T15:24:14;332.80;2329.60
56436;DHT22;42335;44.872;20.658;2022-12-29T15:26:42;308.10;2304.00
56436;DHT22;42335;44.872;20.658;2022-12-29T15:29:29;308.10;2304.00
56436;DHT22;42335;44.872;20.658;2022-12-29T15:31:57;308.10;2304.00
56436;DHT22;42335;44.872;20.658;2022-12-29T15:34:24;333.00;2329.60
56436;DHT22;42335;44.872;20.658;2022-12-29T15:36:50;332.80;2329.60
56436;DHT22;42335;44.872;20.658;2022-12-29T15:39:29;308.10;2304.00
56436;DHT22;42335;44.872;20.658;2022-12-29T15:44:36;308.00;2304.00
56436;DHT22;42335;44.872;20.658;2022-12-29T15:47:11;307.90;2304.00
56436;DHT22;42335;44.872;20.658;2022-12-29T15:49:38;308.00;2304.00
56436;DHT22;42335;44.872;20.658;2022-12-29T15:52:10;307.80;2304.00
56436;DHT22;42335;44.872;20.658;2022-12-29T15:54:38;308.10;2304.00
56436;DHT22;42335;44.872;20.658;2022-12-29T15:57:22;307.80;2304.00
56436;DHT22;42335;44.872;20.658;2022-12-29T15:59:48;307.80;2304.00
56436;DHT22;42335;44.872;20.658;2022-12-29T16:02:13;307.80;2304.00
56436;DHT22;42335;44.872;20.658;2022-12-29T16:04:40;307.80;2304.00
56436;DHT22;42335;44.872;20.658;2022-12-29T16:09:54;307.80;2304.00
56436;DHT22;42335;44.872;20.658;2022-12-29T16:12:23;307.80;2304.00
56436;DHT22;42335;44.872;20.658;2022-12-29T16:14:58;307.70;2304.00
56436;DHT22;42335;44.872;20.658;2022-12-29T16:17:27;307.70;2304.00
56436;DHT22;42335;44.872;20.658;2022-12-29T16:20:02;307.70;2304.00
56436;DHT22;42335;44.872;20.658;2022-12-29T16:22:41;307.80;2304.00
56436;DHT22;42335;44.872;20.658;2022-12-29T16:25:30;307.70;2304.00
56436;DHT22;42335;44.872;20.658;2022-12-29T16:27:58;307.60;2304.00
56436;DHT22;42335;44.872;20.658;2022-12-29T16:30:30;307.60;2304.00
56436;DHT22;42335;44.872;20.658;2022-12-29T16:33:00;307.60;2304.00
56436;DHT22;42335;44.872;20.658;2022-12-29T16:35:28;307.70;2304.00
56436;DHT22;42335;44.872;20.658;2022-12-29T16:38:20;307.60;2304.00
56436;DHT22;42335;44.872;20.658;2022-12-29T16:40:59;307.60;2304.00
56436;DHT22;42335;44.872;20.658;2022-12-29T16:43:33;307.60;2304.00
56436;DHT22;42335;44.872;20.658;2022-12-29T16:48:50;307.50;2304.00
56436;DHT22;42335;44.872;20.658;2022-12-29T16:51:28;307.50;2304.00
56436;DHT22;42335;44.872;20.658;2022-12-29T16:53:55;307.50;2304.00
56436;DHT22;42335;44.872;20.658;2022-12-29T16:56:24;307.50;2304.00
56436;DHT22;42335;44.872;20.658;2022-12-29T16:59:08;307.50;2304.00
56436;DHT22;42335;44.872;20.658;2022-12-29T17:01:40;307.40;2304.00
56436;DHT22;42335;44.872;20.658;2022-12-29T17:04:08;307.40;2304.00
56436;DHT22;42335;44.872;20.658;2022-12-29T17:06:34;307.30;2304.00
56436;DHT22;42335;44.872;20.658;2022-12-29T17:09:00;307.30;2304.00
56436;DHT22;42335;44.872;20.658;2022-12-29T17:11:29;307.30;2304.00
56436;DHT22;42335;44.872;20.658;2022-12-29T17:16:47;307.30;2304.00
56436;DHT22;42335;44.872;20.658;2022-12-29T17:19:18;307.30;2304.00
56436;DHT22;42335;44.872;20.658;2022-12-29T17:21:44;307.30;2304.00
56436;DHT22;42335;44.872;20.658;2022-12-29T17:24:18;307.30;2304.00
56436;DHT22;42335;44.872;20.658;2022-12-29T17:26:52;307.20;2304.00
56436;DHT22;42335;44.872;20.658;2022-12-29T17:29:47;307.20;2304.00
56436;DHT22;42335;44.872;20.658;2022-12-29T17:32:13;307.30;2304.00
56436;DHT22;42335;44.872;20.658;2022-12-29T17:34:40;282.50;2278.40
56436;DHT22;42335;44.872;20.658;2022-12-29T17:39:50;282.40;2278.40
56436;DHT22;42335;44.872;20.658;2022-12-29T17:42:16;282.20;2278.40
56436;DHT22;42335;44.872;20.658;2022-12-29T17:44:44;282.30;2278.40
56436;DHT22;42335;44.872;20.658;2022-12-29T17:47:11;282.30;2278.40
56436;DHT22;42335;44.872;20.658;2022-12-29T17:49:37;282.30;2278.40
56436;DHT22;42335;44.872;20.658;2022-12-29T17:52:03;282.20;2278.40
56436;DHT22;42335;44.872;20.658;2022-12-29T17:54:30;282.30;2278.40
56436;DHT22;42335;44.872;20.658;2022-12-29T17:56:57;282.20;2278.40